KOCH/OCH METAR and TAF weather

Enter ICAO airport designator
Station Type Date Time Source
KOCH METAR 2019/08/17 09:56 UTC NOAA

KOCH 170956Z AUTO 17003KT 10SM CLR 25/25 A2992 RMK AO2 SLP130 T02500250


Station Type Date Time Source
KOCH Decoded METAR 2019/08/17 09:56 UTC NOAA

Station name not available
Aug 17, 2019 - 05:56 AM EDT / 2019.08.17 0956 UTC
Wind: from the S (170 degrees) at 3 MPH (3 KT):0
Visibility: 10 mile(s):0
Sky conditions: clear
Temperature: 77.0 F (25.0 C)
Dew Point: 77.0 F (25.0 C)
Relative Humidity: 100%
Pressure (altimeter): 29.92 in. Hg (1013 hPa)
ob: KOCH 170956Z AUTO 17003KT 10SM CLR 25/25 A2992 RMK AO2 SLP130 T02500250
cycle: 10

Station Type Date Time Source
KOCH TAF UTC NOAA

Error!

Example: see airport list